Station: Ballarat  

  Atmospheric Gas Attenuation - ITU Rec 676-11   ----------------- dB/100km -----------------
Date Time Temp RH % AH g/m3 Dew Point Wind Direction Speed kph Gust kph Barometer mB Rainfall Since 9am 24GHz 47GHz 76GHz 122GHz 134GHz 241GHz
08/05 12:30 12.3 87 9.45 10.2 24 35 1024.8 0.2 21.5 28.2 44.7 117.2 113.0 389.3
08/05 12:20 11.6 87 9.04 9.5 24 30 1025 0.2 20.6 27.7 43.3 113.6 108.3 372.8
08/05 12:10 12.2 89 9.61 10.4 22 30 1025.1 0.2 21.8 28.5 45.4 119.2 115.5 397.8
08/05 12:00 11.7 92 9.62 10.4 22 35 1025 0.2 21.9 28.7 45.7 120.1 116.3 400.8
08/05 11:50 11.4 92 9.44 10.1 20 26 1025.2 0.2 21.5 28.5 45.1 118.5 114.3 393.5
08/05 11:40 11.6 92 9.56 10.3 22 28 1025.3 0.2 21.7 28.7 45.6 119.6 115.7 398.5
08/05 11:30 10.9 93 9.25 9.8 26 37 1025.2 0.2 21.1 28.3 44.6 117.1 112.3 386.6
08/05 11:20 11.1 92 9.27 9.9 28 37 1025.2 0.2 21.1 28.3 44.6 117.0 112.3 386.6
08/05 11:10 11.5 92 9.5 10.2 26 32 1025.1 0 21.6 28.6 45.3 119.0 114.9 395.9
08/05 11:00 11.2 93 9.43 10.1 20 32 1024.9 0 21.5 28.5 45.2 118.7 114.4 393.9
08/05 10:50 11 94 9.41 10.1 15 19 1025 0 21.5 28.6 45.2 118.8 114.4 394.0
08/05 10:40 10.8 94 9.29 9.9 20 24 1024.7 0 21.2 28.4 44.8 117.6 113.0 388.9
08/05 10:30 10.9 94 9.35 10 20 30 1024.6 0 21.3 28.5 45.0 118.2 113.7 391.4
08/05 10:20 10.8 94 9.29 9.9 24 30 1024.5 0 21.2 28.4 44.8 117.6 113.0 388.9
08/05 10:10 10.6 95 9.27 9.8 19 26 1024.4 0 21.2 28.4 44.8 117.7 113.0 388.8
08/05 10:00 10.6 95 9.27 9.8 17 24 1024.2 0 21.2 28.4 44.8 117.7 112.9 388.8
08/05 09:50 10.7 95 9.33 9.9 15 20 1024.1 0 21.3 28.5 45.0 118.2 113.6 391.2
08/05 09:40 10.6 95 9.27 9.8 19 24 1024.1 0 21.2 28.4 44.8 117.6 112.9 388.7
08/05 09:30 10.5 96 9.31 9.9 17 28 1024.2 0 21.3 28.5 45.1 118.3 113.7 391.3
08/05 09:20 10.3 95 9.1 9.5 19 24 1024.2 0 20.8 28.2 44.3 116.1 111.0 381.8
08/05 09:10 10.2 96 9.14 9.6 24 30 1024.3 0 20.9 28.3 44.5 116.8 111.7 384.3
08/05 09:00 10.2 96 9.14 9.6 19 32 1024.3 0 20.9 28.3 44.5 116.8 111.7 384.3
08/05 08:50 10.2 96 9.14 9.6 15 20 1024.3 4.4 20.9 28.3 44.5 116.8 111.7 384.3
08/05 08:40 10.1 96 9.08 9.5 13 20 1024.2 4.2 20.8 28.3 44.3 116.2 111.0 381.8
08/05 08:30 10 96 9.02 9.4 17 26 1024 4.2 20.7 28.2 44.1 115.6 110.2 379.2
08/05 08:20 9.9 96 8.97 9.3 20 22 1023.9 4.2 20.6 28.1 43.9 115.2 109.7 377.2
08/05 08:10 9.9 96 8.97 9.3 22 32 1023.8 4.2 20.6 28.1 43.9 115.2 109.6 377.2
08/05 08:00 9.8 96 8.91 9.2 20 39 1023.7 4.2 20.4 28.0 43.7 114.6 108.9 374.6
08/05 07:50 9.8 96 8.91 9.2 19 28 1023.5 4.2 20.4 28.0 43.7 114.6 108.9 374.6
08/05 07:40 9.7 96 8.85 9.1 17 20 1023.4 4.2 20.3 28.0 43.5 114.1 108.2 372.1
08/05 07:30 9.7 96 8.85 9.1 19 24 1023.2 4.2 20.3 27.9 43.5 114.0 108.2 372.0
08/05 07:20 9.7 96 8.85 9.1 17 22 1023.2 4 20.3 27.9 43.5 114.0 108.2 372.0
08/05 07:10 9.7 96 8.85 9.1 17 22 1023.1 4 20.3 27.9 43.5 114.0 108.2 372.0
08/05 07:00 9.7 96 8.85 9.1 17 30 1022.9 3.8 20.3 27.9 43.4 114.0 108.1 371.9
08/05 06:50 9.7 96 8.85 9.1 17 20 1022.8 3.8 20.3 27.9 43.4 114.0 108.1 371.9
08/05 06:40 9.6 96 8.8 9 22 32 1022.7 3.6 20.2 27.9 43.3 113.6 107.6 369.8
08/05 06:30 9.6 96 8.8 9 24 43 1022.6 3.6 20.2 27.9 43.3 113.5 107.5 369.8
08/05 06:20 9.6 96 8.8 9 20 28 1022.6 3.4 20.2 27.9 43.3 113.5 107.5 369.8
08/05 06:10 9.6 96 8.8 9 17 24 1022.7 3.4 20.2 27.9 43.3 113.6 107.6 369.8
08/05 06:00 9.6 96 8.8 9 19 30 1022.5 3.2 20.2 27.9 43.3 113.5 107.5 369.8
08/05 05:50 9.6 95 8.7 8.8 20 26 1022.4 3.2 20.0 27.7 42.8 112.4 106.1 364.8
08/05 05:40 9.6 95 8.7 8.8 30 35 1022.3 3.2 20.0 27.7 42.8 112.4 106.1 364.8
08/05 05:30 9.7 95 8.76 8.9 24 41 1022.3 3 20.1 27.8 43.0 112.9 106.8 367.3
08/05 05:20 9.7 95 8.76 8.9 24 43 1022.3 3 20.1 27.8 43.0 112.9 106.8 367.3
08/05 05:10 9.7 96 8.85 9.1 22 33 1022.1 3 20.3 27.9 43.4 113.9 108.1 371.7
08/05 05:00 9.7 95 8.76 8.9 24 32 1022 3 20.1 27.7 43.0 112.9 106.8 367.2
08/05 04:50 9.7 95 8.76 8.9 28 35 1021.8 3 20.1 27.7 43.0 112.8 106.8 367.1
08/05 04:40 9.7 95 8.76 8.9 30 37 1021.8 3 20.1 27.7 43.0 112.8 106.8 367.1
08/05 04:30 9.7 95 8.76 8.9 30 46 1021.6 3 20.1 27.7 43.0 112.8 106.8 367.1
08/05 04:20 9.6 95 8.7 8.8 33 41 1021.6 3 20.0 27.7 42.8 112.3 106.0 364.6
08/05 04:10 9.6 95 8.7 8.8 32 50 1021.6 3 20.0 27.7 42.8 112.3 106.0 364.6
08/05 04:00 9.7 96 8.85 9.1 28 43 1021.4 3 20.3 27.9 43.4 113.8 108.0 371.5
08/05 03:50 9.6 96 8.8 9 26 32 1021.5 2.8 20.2 27.8 43.2 113.4 107.5 369.5
08/05 03:40 9.6 96 8.8 9 30 35 1021.4 2.8 20.2 27.8 43.2 113.4 107.4 369.5
08/05 03:30 9.6 96 8.8 9 24 35 1021.3 2.8 20.2 27.8 43.2 113.4 107.4 369.4
08/05 03:20 9.5 96 8.74 8.9 26 32 1021.3 2.6 20.1 27.7 43.0 112.9 106.7 366.9
08/05 03:10 9.5 97 8.83 9 30 35 1021.4 2.6 20.3 27.9 43.4 113.9 108.0 371.4
08/05 03:00 9.4 97 8.78 8.9 26 44 1021.3 2.6 20.2 27.8 43.2 113.5 107.4 369.4
08/05 02:50 9.4 97 8.78 8.9 30 39 1021.4 2.6 20.2 27.8 43.2 113.5 107.4 369.4
08/05 02:40 9.4 97 8.78 8.9 24 30 1021.5 2.4 20.2 27.9 43.2 113.5 107.4 369.5
08/05 02:30 9.3 97 8.72 8.8 24 35 1021.6 2.4 20.1 27.8 43.0 112.9 106.7 367.0
08/05 02:20 9.2 97 8.66 8.7 26 32 1021.7 2.2 19.9 27.7 42.8 112.4 106.0 364.5
08/05 02:10 9.2 97 8.66 8.7 22 26 1021.9 2.2 19.9 27.7 42.9 112.4 106.1 364.6
08/05 02:00 9.2 97 8.66 8.7 24 35 1021.8 2.2 19.9 27.7 42.9 112.4 106.1 364.5
08/05 01:50 9.1 97 8.61 8.6 28 35 1021.9 2.2 19.8 27.7 42.7 112.0 105.5 362.5
08/05 01:40 9.1 97 8.61 8.6 24 28 1022.2 2.2 19.8 27.7 42.7 112.0 105.5 362.6
08/05 01:30 9 97 8.55 8.6 22 35 1022.2 2.2 19.7 27.6 42.5 111.5 104.8 360.1
08/05 01:20 9 97 8.55 8.5 22 24 1022.3 2.2 19.7 27.6 42.5 111.5 104.8 360.2
08/05 01:10 8.9 97 8.5 8.5 30 35 1022.4 2.2 19.6 27.6 42.4 111.1 104.2 358.2
08/05 01:00 8.9 97 8.5 8.5 22 30 1022.5 2.2 19.6 27.6 42.4 111.1 104.3 358.2
08/05 00:50 8.8 97 8.45 8.4 20 24 1022.7 2.2 19.5 27.5 42.2 110.7 103.7 356.2
08/05 00:40 8.8 97 8.45 8.4 28 35 1022.8 2.2 19.5 27.5 42.2 110.7 103.7 356.3
08/05 00:30 8.8 97 8.45 8.4 22 32 1022.8 2.2 19.5 27.5 42.2 110.7 103.7 356.3
08/05 00:20 8.7 97 8.39 8.3 24 28 1022.9 2 19.4 27.5 42.0 110.2 103.0 353.8
08/05 00:10 8.5 97 8.28 8.1 19 24 1022.9 2 19.1 27.3 41.6 109.2 101.7 349.2
08/05 00:00 8.4 97 8.23 8 20 30 1022.8 2 19.0 27.3 41.5 108.7 101.1 347.2
07/05 23:50 8.3 97 8.18 7.9 19 20 1022.8 2 18.9 27.2 41.3 108.3 100.6 345.2
07/05 23:40 8.3 97 8.18 7.9 20 24 1023.1 2 18.9 27.2 41.3 108.3 100.6 345.2
07/05 23:30 8.3 97 8.18 7.9 22 32 1023.3 2 18.9 27.2 41.3 108.4 100.6 345.3
07/05 23:20 8.2 97 8.13 7.8 20 24 1023.5 2 18.8 27.2 41.2 107.9 100.0 343.3
07/05 23:10 8.1 97 8.07 7.7 20 26 1023.5 1.8 18.7 27.1 41.0 107.4 99.3 340.8
07/05 23:00 7.9 96 7.89 7.3 20 33 1023.3 1.8 18.3 26.9 40.3 105.6 97.0 332.7
07/05 22:50 7.8 96 7.84 7.2 22 28 1023.5 1.8 18.2 26.8 40.2 105.2 96.5 330.8
07/05 22:40 7.8 96 7.84 7.2 20 28 1023.6 1.8 18.2 26.8 40.2 105.2 96.5 330.8
07/05 22:30 7.7 96 7.79 7.1 22 32 1023.8 1.8 18.1 26.8 40.0 104.8 95.9 328.8
07/05 22:20 7.6 96 7.74 7 26 30 1023.7 1.8 18.0 26.7 39.8 104.3 95.3 326.8
07/05 22:10 7.6 96 7.74 7 22 26 1023.7 1.6 18.0 26.7 39.8 104.3 95.3 326.8
07/05 22:00 7.6 96 7.74 7 22 32 1023.9 1.6 18.0 26.7 39.8 104.4 95.3 326.8
07/05 21:50 7.6 96 7.74 7 22 26 1023.8 1.4 18.0 26.7 39.8 104.3 95.3 326.8
07/05 21:40 7.5 95 7.61 6.8 28 32 1023.6 1.4 17.8 26.5 39.3 103.0 93.6 320.8
07/05 21:30 7.4 96 7.64 6.8 24 33 1023.6 1.4 17.8 26.6 39.5 103.5 94.2 322.7
07/05 21:20 7.3 96 7.59 6.7 26 32 1023.7 1.4 17.7 26.5 39.4 103.0 93.6 320.6
07/05 21:10 7.3 96 7.59 6.7 28 33 1023.7 1.4 17.7 26.5 39.4 103.0 93.6 320.6
07/05 21:00 7.3 96 7.59 6.7 22 32 1023.7 1.4 17.7 26.5 39.4 103.0 93.6 320.6
07/05 20:50 7.3 95 7.51 6.6 26 30 1023.7 1.4 17.5 26.4 39.0 102.1 92.5 316.7
07/05 20:40 7.2 95 7.46 6.5 20 22 1023.9 1.4 17.4 26.4 38.9 101.7 91.9 314.7
07/05 20:30 7.2 95 7.46 6.5 24 33 1024 1.2 17.4 26.4 38.9 101.7 91.9 314.8
07/05 20:20 7.2 94 7.38 6.3 20 24 1024 1.2 17.3 26.2 38.5 100.8 90.8 310.9
07/05 20:10 7.3 93 7.35 6.2 28 35 1023.9 1.2 17.2 26.1 38.3 100.3 90.3 309.0
07/05 20:00 7.4 91 7.24 6 24 37 1023.8 1.2 17.0 25.9 37.8 99.0 88.6 303.2

Last Refresh: 08-May-2026 12:07:27

Bureau of Meteorology